Time;durP1;ratioP1;P1;durP2;ratioP2;P2;SDS_P1;SDS_P2;PMS_P1;PMS_P2;Temp;Humidity;BMP_temperature;BMP_pressure;BME280_temperature;BME280_humidity;BME280_pressure;Samples;Min_cycle;Max_cycle;Signal;HPM_P1;HPM_P2
2022/03/11 00:00:35;;;;;;;25.05;15.20;;;5.80;96.90;;;;;;5053096;28;20122;-58
2022/03/11 00:03:01;;;;;;;23.30;15.07;;;5.70;97.60;;;;;;5046931;28;20076;-56
2022/03/11 00:05:26;;;;;;;27.00;15.07;;;5.60;97.20;;;;;;5028920;28;20530;-57
2022/03/11 00:07:52;;;;;;;27.83;15.27;;;5.60;97.50;;;;;;5042290;28;20038;-54
2022/03/11 00:10:17;;;;;;;26.70;14.43;;;5.50;97.90;;;;;;5050781;28;20107;-57
2022/03/11 00:12:43;;;;;;;30.67;16.08;;;5.50;97.90;;;;;;5058597;28;20159;-57
2022/03/11 00:15:09;;;;;;;25.02;15.15;;;5.40;98.10;;;;;;5058170;28;20673;-57
2022/03/11 00:17:35;;;;;;;25.15;14.55;;;5.40;98.60;;;;;;5035359;28;20584;-57
2022/03/11 00:20:01;;;;;;;27.35;15.18;;;5.30;98.30;;;;;;5043960;28;20534;-57
2022/03/11 00:22:26;;;;;;;25.10;14.63;;;5.30;98.20;;;;;;5067870;28;20127;-58
2022/03/11 00:24:52;;;;;;;24.83;15.07;;;5.20;98.20;;;;;;5063013;28;20037;-58
2022/03/11 00:27:17;;;;;;;23.08;14.45;;;5.20;98.70;;;;;;5056850;28;20032;-57
2022/03/11 00:29:43;;;;;;;24.30;14.77;;;5.20;98.90;;;;;;5062645;28;20040;-57
2022/03/11 00:32:08;;;;;;;28.20;15.85;;;5.10;98.70;;;;;;5061143;28;20107;-57
2022/03/11 00:34:34;;;;;;;24.17;14.55;;;5.00;99.40;;;;;;5052452;28;20111;-57
2022/03/11 00:37:00;;;;;;;33.33;15.10;;;5.00;99.40;;;;;;5040670;28;20107;-55
2022/03/11 00:39:27;;;;;;;26.00;14.52;;;4.90;99.90;;;;;;5050828;28;20473;-56
2022/03/11 00:41:53;;;;;;;25.92;15.13;;;4.90;99.60;;;;;;5044568;28;20038;-57
2022/03/11 00:44:20;;;;;;;27.08;15.25;;;4.90;99.90;;;;;;5052908;28;20082;-57
2022/03/11 00:46:46;;;;;;;25.42;15.18;;;4.80;99.80;;;;;;5044005;28;20044;-57
2022/03/11 00:49:11;;;;;;;24.90;14.52;;;4.80;99.90;;;;;;5058767;28;20044;-56
2022/03/11 00:51:37;;;;;;;26.65;14.95;;;4.80;99.60;;;;;;5049738;28;20108;-58
2022/03/11 00:54:03;;;;;;;24.42;14.20;;;4.80;99.90;;;;;;5057492;28;20033;-57
2022/03/11 00:56:30;;;;;;;24.60;14.57;;;4.80;99.90;;;;;;5026220;28;20107;-57
2022/03/11 00:58:56;;;;;;;22.25;13.63;;;4.70;99.90;;;;;;5043961;28;20060;-57
2022/03/11 01:01:22;;;;;;;23.55;14.15;;;4.70;99.90;;;;;;5061400;28;20032;-57
2022/03/11 01:03:47;;;;;;;24.52;14.30;;;4.70;99.90;;;;;;5067450;28;20048;-56
2022/03/11 01:06:13;;;;;;;21.40;13.23;;;4.70;99.90;;;;;;5042208;28;20389;-56
2022/03/11 01:08:38;;;;;;;26.73;13.57;;;4.70;99.90;;;;;;5048050;28;20144;-58
2022/03/11 01:11:05;;;;;;;28.02;13.77;;;4.70;99.90;;;;;;5052149;28;20071;-57
2022/03/11 01:13:31;;;;;;;22.63;13.57;;;4.70;99.90;;;;;;5029756;28;20048;-57
2022/03/11 01:15:56;;;;;;;22.85;13.00;;;4.70;99.90;;;;;;5053332;28;20036;-58
2022/03/11 01:18:22;;;;;;;21.13;12.73;;;4.70;99.90;;;;;;5061225;28;20075;-57
2022/03/11 01:20:47;;;;;;;20.27;12.55;;;4.60;99.90;;;;;;5069511;28;20041;-57
2022/03/11 01:23:13;;;;;;;19.15;12.05;;;4.70;99.90;;;;;;5057566;28;20047;-56
2022/03/11 01:25:38;;;;;;;20.90;12.68;;;4.70;99.90;;;;;;5059793;28;20033;-56
2022/03/11 01:28:04;;;;;;;21.92;12.05;;;4.70;99.90;;;;;;5069767;28;20033;-56
2022/03/11 01:30:29;;;;;;;21.98;12.70;;;4.60;99.90;;;;;;5069551;28;20043;-56
2022/03/11 01:32:55;;;;;;;20.27;11.70;;;4.60;99.90;;;;;;5049015;28;20045;-57
2022/03/11 01:35:21;;;;;;;20.65;12.27;;;4.50;99.90;;;;;;5056818;28;20036;-59
2022/03/11 01:37:46;;;;;;;23.02;12.70;;;4.50;99.90;;;;;;5067375;28;20040;-58
2022/03/11 01:40:12;;;;;;;26.30;12.43;;;4.50;99.90;;;;;;5052808;28;20754;-59
2022/03/11 01:42:39;;;;;;;23.67;12.85;;;4.50;99.90;;;;;;5062559;28;20105;-58
2022/03/11 01:45:05;;;;;;;22.42;13.95;;;4.40;99.90;;;;;;5048632;28;20033;-59
2022/03/11 01:47:31;;;;;;;18.90;11.98;;;4.40;99.90;;;;;;5048272;28;20043;-58
2022/03/11 01:49:57;;;;;;;19.70;12.20;;;4.50;99.90;;;;;;5049026;28;20143;-58
2022/03/11 01:52:22;;;;;;;19.77;11.50;;;4.40;99.90;;;;;;5057355;28;20120;-58
2022/03/11 01:54:49;;;;;;;25.10;12.75;;;4.40;99.90;;;;;;5064362;28;20048;-58
2022/03/11 01:57:14;;;;;;;22.63;12.80;;;4.50;99.90;;;;;;5024888;28;20041;-59
2022/03/11 01:59:41;;;;;;;24.08;12.68;;;4.50;99.90;;;;;;5057856;28;20063;-58
2022/03/11 02:02:06;;;;;;;23.63;12.40;;;4.40;99.90;;;;;;5069045;28;20044;-59
2022/03/11 02:04:32;;;;;;;19.80;12.48;;;4.50;99.90;;;;;;5060163;28;20033;-58
2022/03/11 02:06:58;;;;;;;22.25;12.63;;;4.40;99.90;;;;;;5045141;28;20059;-57
2022/03/11 02:09:24;;;;;;;22.60;12.60;;;4.40;99.90;;;;;;5060564;28;20047;-58
2022/03/11 02:11:49;;;;;;;20.13;12.30;;;4.30;99.90;;;;;;5057709;28;20483;-58
2022/03/11 02:14:15;;;;;;;21.42;12.52;;;4.30;99.90;;;;;;5053865;28;20040;-58
2022/03/11 02:16:40;;;;;;;23.90;12.68;;;4.20;99.90;;;;;;5060158;28;20051;-58
2022/03/11 02:19:07;;;;;;;21.65;13.10;;;4.30;99.90;;;;;;5067547;28;20670;-58
2022/03/11 02:21:43;;;;;;;23.67;13.35;;;4.20;99.90;;;;;;5053017;28;20071;-58
2022/03/11 02:24:12;;;;;;;22.92;13.25;;;4.20;99.90;;;;;;5049391;28;20056;-57
2022/03/11 02:26:38;;;;;;;22.00;13.18;;;4.20;99.90;;;;;;5048481;28;20091;-56
2022/03/11 02:29:05;;;;;;;22.83;13.00;;;4.20;99.90;;;;;;5047476;28;20036;-54
2022/03/11 02:31:31;;;;;;;24.15;13.50;;;4.20;99.90;;;;;;5040810;28;20037;-57
2022/03/11 02:33:59;;;;;;;22.42;13.38;;;4.20;99.90;;;;;;5056485;28;20049;-57
2022/03/11 02:36:25;;;;;;;25.13;14.55;;;4.20;99.90;;;;;;5048346;28;20116;-57
2022/03/11 02:38:51;;;;;;;25.25;14.30;;;4.10;99.90;;;;;;5048025;28;20112;-57
2022/03/11 02:41:17;;;;;;;23.33;14.15;;;4.10;99.90;;;;;;5061623;28;20415;-57
2022/03/11 02:43:43;;;;;;;27.15;14.85;;;4.10;99.90;;;;;;5053152;28;20037;-56
2022/03/11 02:46:10;;;;;;;27.08;14.57;;;4.10;99.90;;;;;;5043161;28;20104;-57
2022/03/11 02:48:35;;;;;;;26.58;15.07;;;4.00;99.90;;;;;;5046395;28;20040;-57
2022/03/11 02:51:01;;;;;;;25.58;14.88;;;4.00;99.90;;;;;;5052005;28;20442;-56
2022/03/11 02:53:27;;;;;;;25.35;14.25;;;4.00;99.90;;;;;;5068061;28;20036;-57
2022/03/11 02:55:52;;;;;;;29.48;16.13;;;4.00;99.90;;;;;;5055898;28;20790;-58
2022/03/11 02:58:19;;;;;;;26.08;15.00;;;4.00;99.90;;;;;;5056464;28;20032;-57
2022/03/11 03:00:45;;;;;;;26.53;15.00;;;3.90;99.90;;;;;;5050067;28;20033;-57
2022/03/11 03:03:10;;;;;;;27.83;15.80;;;3.90;99.90;;;;;;5042381;28;20025;-57
2022/03/11 03:05:36;;;;;;;23.35;14.50;;;3.90;99.90;;;;;;5055150;28;20045;-57
2022/03/11 03:08:02;;;;;;;24.63;14.88;;;3.80;99.90;;;;;;5068122;28;20696;-57
2022/03/11 03:10:27;;;;;;;31.10;15.18;;;3.80;99.90;;;;;;5067936;28;20040;-58
2022/03/11 03:12:53;;;;;;;26.50;14.90;;;3.80;99.90;;;;;;5032718;28;20052;-58
2022/03/11 03:15:19;;;;;;;28.38;15.38;;;3.80;99.90;;;;;;5048720;28;20054;-57
2022/03/11 03:17:44;;;;;;;26.10;14.75;;;3.70;99.90;;;;;;5049762;28;20549;-57
2022/03/11 03:20:11;;;;;;;26.85;15.77;;;3.70;99.90;;;;;;5044203;28;20036;-57
2022/03/11 03:22:36;;;;;;;29.52;15.30;;;3.70;99.90;;;;;;5060554;28;20361;-57
2022/03/11 03:25:03;;;;;;;28.33;15.60;;;3.70;99.90;;;;;;5047574;28;20660;-57
2022/03/11 03:27:29;;;;;;;29.42;15.95;;;3.70;99.90;;;;;;5043803;28;20033;-57
2022/03/11 03:29:55;;;;;;;26.10;14.93;;;3.60;99.90;;;;;;5055693;28;20663;-57
2022/03/11 03:32:20;;;;;;;25.85;15.32;;;3.60;99.90;;;;;;5047150;28;20116;-58
2022/03/11 03:34:46;;;;;;;28.08;15.95;;;3.60;99.90;;;;;;5040065;28;20045;-59
2022/03/11 03:37:12;;;;;;;29.65;15.40;;;3.50;99.90;;;;;;5043219;28;20082;-58
2022/03/11 03:39:39;;;;;;;28.55;15.80;;;3.50;99.90;;;;;;5056143;28;20111;-59
2022/03/11 03:42:06;;;;;;;27.45;16.00;;;3.50;99.90;;;;;;5060236;28;20045;-58
2022/03/11 03:44:32;;;;;;;28.52;16.35;;;3.50;99.90;;;;;;5050446;28;20036;-58
2022/03/11 03:46:57;;;;;;;27.08;15.23;;;3.50;99.90;;;;;;5058440;28;20028;-58
2022/03/11 03:49:23;;;;;;;28.92;16.23;;;3.40;99.90;;;;;;5033505;28;20395;-58
2022/03/11 03:51:49;;;;;;;31.60;16.05;;;3.40;99.90;;;;;;5037069;28;20120;-58
2022/03/11 03:54:16;;;;;;;33.70;16.30;;;3.40;99.90;;;;;;5059524;28;20036;-58
2022/03/11 03:56:43;;;;;;;30.17;15.95;;;3.40;99.90;;;;;;5050279;28;20044;-58
2022/03/11 03:59:10;;;;;;;28.52;16.33;;;3.40;99.90;;;;;;5050758;28;20499;-58
2022/03/11 04:01:38;;;;;;;27.88;15.65;;;3.40;99.90;;;;;;5049357;28;20048;-58
2022/03/11 04:04:05;;;;;;;30.83;16.00;;;3.40;99.90;;;;;;5060712;28;20029;-58
2022/03/11 04:06:31;;;;;;;31.38;16.50;;;3.30;99.90;;;;;;5052400;28;20660;-58
2022/03/11 04:08:58;;;;;;;32.15;16.95;;;3.30;99.90;;;;;;5048215;28;20078;-58
2022/03/11 04:11:24;;;;;;;29.75;16.25;;;3.30;99.90;;;;;;5062730;28;20044;-58
2022/03/11 04:13:50;;;;;;;31.55;16.80;;;3.30;99.90;;;;;;5062442;28;20446;-58
2022/03/11 04:16:16;;;;;;;27.25;16.63;;;3.20;99.90;;;;;;5071283;28;20713;-58
2022/03/11 04:18:42;;;;;;;30.17;16.73;;;3.20;99.90;;;;;;5058571;28;20635;-59
2022/03/11 04:21:08;;;;;;;30.30;17.30;;;3.20;99.90;;;;;;5058863;28;20040;-58
2022/03/11 04:23:33;;;;;;;28.90;16.67;;;3.10;99.90;;;;;;5041848;28;20044;-58
2022/03/11 04:25:59;;;;;;;32.83;18.25;;;3.10;99.90;;;;;;5056231;28;20565;-57
2022/03/11 04:28:24;;;;;;;30.10;17.27;;;3.10;99.90;;;;;;5047808;28;20040;-58
2022/03/11 04:30:50;;;;;;;32.22;16.92;;;3.10;99.90;;;;;;5062328;28;20033;-58
2022/03/11 04:33:16;;;;;;;29.60;17.05;;;3.00;99.90;;;;;;5052239;28;20029;-58
2022/03/11 04:35:41;;;;;;;35.67;17.98;;;3.00;99.90;;;;;;5059540;28;20029;-58
2022/03/11 04:38:07;;;;;;;29.17;16.95;;;3.00;99.90;;;;;;5049895;28;20084;-58
2022/03/11 04:40:32;;;;;;;36.00;18.27;;;3.00;99.90;;;;;;5042295;28;20045;-58
2022/03/11 04:42:58;;;;;;;36.03;17.02;;;3.00;99.90;;;;;;5036517;28;20068;-58
2022/03/11 04:45:24;;;;;;;32.83;17.98;;;3.00;99.90;;;;;;5058501;28;20041;-58
2022/03/11 04:47:50;;;;;;;33.70;18.33;;;2.90;99.90;;;;;;5062059;28;20039;-57
2022/03/11 04:50:15;;;;;;;33.70;18.27;;;3.00;99.90;;;;;;5070641;28;20072;-57
2022/03/11 04:52:41;;;;;;;36.55;18.42;;;3.00;99.90;;;;;;5041662;28;20037;-57
2022/03/11 04:55:07;;;;;;;37.65;19.10;;;3.00;99.90;;;;;;5063262;28;20052;-56
2022/03/11 04:57:32;;;;;;;34.33;18.08;;;3.00;99.90;;;;;;5057118;28;20037;-57
2022/03/11 04:59:59;;;;;;;34.15;17.63;;;2.90;99.90;;;;;;5050725;28;20127;-57
2022/03/11 05:02:26;;;;;;;36.58;18.23;;;2.90;99.90;;;;;;5062297;28;20053;-57
2022/03/11 05:04:52;;;;;;;35.15;18.33;;;2.90;99.90;;;;;;5051271;28;20568;-57
2022/03/11 05:07:18;;;;;;;36.35;19.30;;;2.90;99.90;;;;;;5046049;28;20033;-57
2022/03/11 05:09:43;;;;;;;34.83;18.45;;;2.90;99.90;;;;;;5047970;28;20042;-56
2022/03/11 05:12:09;;;;;;;36.28;18.80;;;2.90;99.90;;;;;;5061660;28;20036;-56
2022/03/11 05:14:35;;;;;;;37.55;19.20;;;2.90;99.90;;;;;;5070100;28;20568;-57
2022/03/11 05:17:00;;;;;;;37.95;19.65;;;2.90;99.90;;;;;;5041754;28;20051;-57
2022/03/11 05:19:26;;;;;;;39.20;19.80;;;2.90;99.90;;;;;;5053268;28;20111;-56
2022/03/11 05:21:52;;;;;;;38.03;20.10;;;2.80;99.90;;;;;;5057164;28;20033;-55
2022/03/11 05:24:18;;;;;;;39.22;19.27;;;2.80;99.90;;;;;;5053369;28;20029;-57
2022/03/11 05:26:43;;;;;;;38.55;19.33;;;2.80;99.90;;;;;;5060430;28;20074;-57
2022/03/11 05:29:09;;;;;;;43.17;20.60;;;2.80;99.90;;;;;;5059172;28;20456;-58
2022/03/11 05:31:34;;;;;;;43.15;19.98;;;2.80;99.90;;;;;;5038416;28;20033;-58
2022/03/11 05:34:00;;;;;;;37.85;20.67;;;2.70;99.90;;;;;;5050647;28;20123;-58
2022/03/11 05:36:25;;;;;;;37.65;19.17;;;2.70;99.90;;;;;;5061056;28;20483;-58
2022/03/11 05:38:51;;;;;;;39.72;20.55;;;2.70;99.90;;;;;;5069533;28;20032;-58
2022/03/11 05:41:17;;;;;;;37.78;19.85;;;2.60;99.90;;;;;;5051402;28;20037;-57
2022/03/11 05:43:43;;;;;;;36.28;19.77;;;2.60;99.90;;;;;;5052297;28;20098;-58
2022/03/11 05:46:09;;;;;;;38.80;20.38;;;2.60;99.90;;;;;;5042870;28;20032;-58
2022/03/11 05:48:34;;;;;;;37.53;19.73;;;2.60;99.90;;;;;;5059889;28;20037;-58
2022/03/11 05:51:00;;;;;;;43.33;20.40;;;2.50;99.90;;;;;;5048089;28;20116;-58
2022/03/11 05:53:26;;;;;;;35.67;19.58;;;2.50;99.90;;;;;;5056325;28;20041;-58
2022/03/11 05:55:51;;;;;;;37.13;20.58;;;2.50;99.90;;;;;;5060791;28;20039;-58
2022/03/11 05:58:17;;;;;;;38.30;20.50;;;2.50;99.90;;;;;;5065807;28;20041;-58
2022/03/11 06:00:42;;;;;;;38.63;20.23;;;2.50;99.90;;;;;;5052954;28;20111;-58
2022/03/11 06:03:08;;;;;;;39.65;20.35;;;2.50;99.90;;;;;;5060645;28;20441;-58
2022/03/11 06:05:34;;;;;;;42.33;21.80;;;2.50;99.90;;;;;;5053239;28;20044;-58
2022/03/11 06:07:59;;;;;;;42.70;21.38;;;2.50;99.90;;;;;;5052472;28;20040;-58
2022/03/11 06:10:25;;;;;;;40.45;20.02;;;2.50;99.90;;;;;;5057726;28;20086;-58
2022/03/11 06:12:51;;;;;;;41.22;21.55;;;2.40;99.90;;;;;;5064486;28;20044;-56
2022/03/11 06:15:16;;;;;;;40.72;19.58;;;2.50;99.90;;;;;;5036346;28;20043;-58
2022/03/11 06:17:42;;;;;;;45.05;21.25;;;2.50;99.90;;;;;;5046702;28;20039;-59
2022/03/11 06:20:12;;;;;;;45.25;20.55;;;2.50;99.90;;;;;;5058307;28;20599;-58
2022/03/11 06:22:46;;;;;;;37.88;20.63;;;2.50;99.90;;;;;;5044797;28;20049;-58
2022/03/11 06:25:12;;;;;;;38.70;20.63;;;2.50;99.90;;;;;;5054544;28;20074;-58
2022/03/11 06:27:38;;;;;;;39.33;20.00;;;2.50;99.90;;;;;;5045291;28;20503;-58
2022/03/11 06:30:04;;;;;;;41.65;21.83;;;2.50;99.90;;;;;;5046170;28;20036;-58
2022/03/11 06:32:29;;;;;;;52.50;21.15;;;2.60;99.90;;;;;;5044183;28;20119;-57
2022/03/11 06:34:55;;;;;;;38.28;20.10;;;2.60;99.90;;;;;;5052437;28;20159;-58
2022/03/11 06:37:20;;;;;;;42.13;20.20;;;2.60;99.90;;;;;;5045903;28;20048;-58
2022/03/11 06:39:46;;;;;;;39.58;20.65;;;2.60;99.90;;;;;;5047691;28;20049;-57
2022/03/11 06:42:11;;;;;;;41.58;20.00;;;2.60;99.90;;;;;;5045332;28;20040;-58
2022/03/11 06:44:37;;;;;;;38.85;20.48;;;2.70;99.90;;;;;;5060834;28;20048;-58
2022/03/11 06:47:03;;;;;;;42.35;20.08;;;2.70;99.90;;;;;;5045663;28;20047;-58
2022/03/11 06:49:29;;;;;;;44.35;21.88;;;2.70;99.90;;;;;;5032094;28;20042;-58
2022/03/11 06:51:54;;;;;;;43.72;20.98;;;2.70;99.90;;;;;;5048293;28;20051;-58
2022/03/11 06:54:20;;;;;;;39.58;20.33;;;2.80;99.90;;;;;;5056504;28;20170;-58
2022/03/11 06:56:46;;;;;;;42.67;21.42;;;2.80;99.90;;;;;;5035339;28;20045;-58
2022/03/11 06:59:11;;;;;;;39.55;20.95;;;2.90;99.90;;;;;;5053564;28;20451;-56
2022/03/11 07:01:37;;;;;;;37.85;19.75;;;3.00;99.90;;;;;;5062196;28;20506;-57
2022/03/11 07:04:02;;;;;;;40.63;20.45;;;3.00;99.90;;;;;;5046935;28;20399;-57
2022/03/11 07:06:28;;;;;;;40.80;20.98;;;3.00;99.90;;;;;;5029586;28;20483;-57
2022/03/11 07:08:54;;;;;;;39.40;20.77;;;3.10;99.90;;;;;;5052687;28;20086;-56
2022/03/11 07:11:19;;;;;;;45.08;21.05;;;3.10;99.90;;;;;;5045739;28;20115;-57
2022/03/11 07:13:45;;;;;;;41.42;21.10;;;3.10;99.90;;;;;;5050798;28;20070;-57
2022/03/11 07:16:12;;;;;;;43.53;20.65;;;3.20;99.90;;;;;;5057291;28;20617;-57
2022/03/11 07:18:37;;;;;;;40.30;20.33;;;3.20;99.90;;;;;;5065000;28;20059;-57
2022/03/11 07:21:03;;;;;;;39.60;20.30;;;3.20;99.90;;;;;;5045725;28;20041;-57
2022/03/11 07:23:29;;;;;;;41.03;20.15;;;3.30;99.90;;;;;;5045869;28;20037;-57
2022/03/11 07:25:55;;;;;;;39.78;20.30;;;3.40;99.90;;;;;;5064436;28;20037;-57
2022/03/11 07:28:21;;;;;;;38.40;20.42;;;3.50;99.90;;;;;;5032021;28;20086;-57
2022/03/11 07:30:47;;;;;;;41.13;20.48;;;3.50;99.90;;;;;;5043354;28;20044;-57
2022/03/11 07:33:13;;;;;;;40.70;20.45;;;3.60;99.90;;;;;;5058339;28;20047;-57
2022/03/11 07:35:39;;;;;;;38.78;20.30;;;3.70;99.90;;;;;;5069251;28;20036;-57
2022/03/11 07:38:05;;;;;;;41.50;21.45;;;3.80;99.90;;;;;;5060070;28;20044;-56
2022/03/11 07:40:31;;;;;;;36.42;19.60;;;3.90;99.90;;;;;;5046707;28;20334;-55
2022/03/11 07:42:57;;;;;;;38.05;20.98;;;3.90;99.90;;;;;;5057152;28;20041;-56
2022/03/11 07:45:22;;;;;;;36.03;18.50;;;4.00;99.90;;;;;;5042393;28;20041;-57
2022/03/11 07:47:48;;;;;;;42.83;20.92;;;4.10;99.90;;;;;;5037271;28;20112;-56
2022/03/11 07:50:14;;;;;;;41.40;20.45;;;4.20;99.90;;;;;;5057134;28;20037;-57
2022/03/11 07:52:40;;;;;;;38.28;19.75;;;4.30;99.90;;;;;;5049021;28;20051;-57
2022/03/11 07:55:07;;;;;;;37.33;20.67;;;4.30;99.90;;;;;;5039258;28;20044;-57
2022/03/11 07:57:35;;;;;;;44.33;20.88;;;4.40;99.90;;;;;;5065094;28;20040;-56
2022/03/11 08:00:04;;;;;;;38.20;20.25;;;4.50;99.90;;;;;;5056483;28;20041;-56
2022/03/11 08:02:30;;;;;;;38.40;19.45;;;4.60;99.90;;;;;;5034323;28;20037;-56
2022/03/11 08:04:57;;;;;;;37.42;20.35;;;4.60;99.90;;;;;;5056114;28;20124;-57
2022/03/11 08:07:22;;;;;;;39.60;19.60;;;4.70;99.90;;;;;;5044802;28;20454;-58
2022/03/11 08:09:48;;;;;;;43.33;21.15;;;4.80;99.90;;;;;;5060719;28;20033;-58
2022/03/11 08:12:14;;;;;;;38.30;20.15;;;4.80;99.90;;;;;;5056123;28;20410;-58
2022/03/11 08:14:40;;;;;;;37.78;20.77;;;4.90;99.90;;;;;;5056552;28;20526;-58
2022/03/11 08:17:06;;;;;;;37.80;20.70;;;5.00;99.90;;;;;;5047655;28;20039;-56
2022/03/11 08:19:32;;;;;;;38.42;20.30;;;5.00;99.90;;;;;;5047659;28;20318;-57
2022/03/11 08:21:58;;;;;;;37.45;19.92;;;5.10;99.90;;;;;;5056308;28;20115;-57
2022/03/11 08:24:24;;;;;;;40.90;21.10;;;5.20;99.90;;;;;;5062915;28;20693;-57
2022/03/11 08:26:49;;;;;;;37.85;20.77;;;5.20;99.90;;;;;;5051503;28;20033;-58
2022/03/11 08:29:16;;;;;;;39.55;19.90;;;5.30;99.90;;;;;;5046258;28;20597;-58
2022/03/11 08:31:46;;;;;;;35.47;19.58;;;5.30;99.90;;;;;;5053081;28;20159;-58
2022/03/11 08:34:12;;;;;;;38.83;21.73;;;5.40;99.90;;;;;;5048817;28;20278;-58
2022/03/11 08:36:39;;;;;;;40.00;19.90;;;5.40;99.90;;;;;;5041943;28;20052;-58
2022/03/11 08:39:06;;;;;;;36.85;20.77;;;5.50;99.90;;;;;;5058239;28;20048;-57
2022/03/11 08:41:32;;;;;;;37.20;18.90;;;5.60;99.90;;;;;;5064601;28;20122;-58
2022/03/11 08:43:59;;;;;;;37.28;18.98;;;5.70;99.90;;;;;;5053417;28;20353;-58
2022/03/11 08:46:26;;;;;;;42.47;19.73;;;5.80;99.90;;;;;;5042001;28;20041;-58
2022/03/11 08:48:52;;;;;;;38.25;19.95;;;5.80;99.90;;;;;;5056615;28;20060;-58
2022/03/11 08:51:18;;;;;;;38.63;20.10;;;5.90;99.90;;;;;;5048641;28;20612;-58
2022/03/11 08:53:43;;;;;;;35.35;19.08;;;5.90;99.90;;;;;;5045086;28;20147;-58
2022/03/11 08:56:09;;;;;;;36.42;19.75;;;6.00;99.90;;;;;;5053087;28;20538;-58
2022/03/11 08:58:34;;;;;;;38.83;21.08;;;6.10;99.90;;;;;;5049589;28;20049;-58
2022/03/11 09:01:00;;;;;;;34.15;19.15;;;6.20;99.90;;;;;;5052981;28;20043;-58
2022/03/11 09:03:25;;;;;;;34.15;19.05;;;6.20;99.90;;;;;;5046220;28;20119;-57
2022/03/11 09:05:51;;;;;;;32.35;19.05;;;6.30;99.90;;;;;;5056216;28;20045;-58
2022/03/11 09:08:17;;;;;;;35.30;19.08;;;6.40;99.90;;;;;;5045605;28;20067;-57
2022/03/11 09:10:43;;;;;;;34.90;19.15;;;6.50;99.90;;;;;;5042347;28;20034;-58
2022/03/11 09:13:08;;;;;;;42.33;21.08;;;6.50;99.90;;;;;;5040705;28;20465;-58
2022/03/11 09:15:34;;;;;;;34.05;19.60;;;6.70;99.90;;;;;;5055868;28;20407;-57
2022/03/11 09:18:00;;;;;;;35.25;20.05;;;6.70;99.90;;;;;;5052463;28;20483;-57
2022/03/11 09:20:26;;;;;;;36.88;19.58;;;6.80;99.90;;;;;;5051380;28;20041;-56
2022/03/11 09:22:52;;;;;;;38.35;20.00;;;6.80;99.90;;;;;;5054454;28;20120;-58
2022/03/11 09:25:18;;;;;;;37.95;19.50;;;6.90;99.90;;;;;;5047147;28;20514;-58
2022/03/11 09:27:44;;;;;;;35.90;20.23;;;7.00;99.90;;;;;;5042494;28;20218;-57
2022/03/11 09:30:10;;;;;;;36.17;20.35;;;7.10;99.90;;;;;;5047226;28;20029;-57
2022/03/11 09:32:37;;;;;;;37.15;20.52;;;7.20;99.90;;;;;;5046557;28;20044;-57
2022/03/11 09:35:04;;;;;;;32.90;18.73;;;7.20;99.90;;;;;;5046926;28;20045;-58
2022/03/11 09:37:29;;;;;;;34.30;18.88;;;7.30;99.90;;;;;;5038004;28;20043;-58
2022/03/11 09:39:55;;;;;;;33.88;19.50;;;7.40;99.90;;;;;;5058516;28;20052;-58
2022/03/11 09:42:21;;;;;;;39.08;20.48;;;7.40;99.90;;;;;;5060721;28;20487;-57
2022/03/11 09:44:52;;;;;;;38.33;20.33;;;7.50;99.90;;;;;;5044330;28;20095;-58
2022/03/11 09:47:19;;;;;;;39.30;20.80;;;7.60;99.90;;;;;;5049157;28;20064;-57
2022/03/11 09:49:45;;;;;;;34.47;20.15;;;7.70;99.90;;;;;;5046759;28;20040;-57
2022/03/11 09:52:12;;;;;;;33.90;19.55;;;7.70;99.90;;;;;;5054381;28;20044;-58
2022/03/11 09:54:38;;;;;;;38.78;20.42;;;7.80;99.90;;;;;;5047890;28;20505;-57
2022/03/11 09:57:04;;;;;;;30.42;17.58;;;8.00;99.90;;;;;;5057172;28;20062;-57
2022/03/11 09:59:29;;;;;;;36.80;19.35;;;8.00;99.90;;;;;;5063411;28;20096;-57
2022/03/11 10:01:55;;;;;;;34.40;20.02;;;8.10;99.20;;;;;;5053168;28;20050;-57
2022/03/11 10:04:21;;;;;;;32.50;18.45;;;8.20;99.30;;;;;;5057992;28;20041;-58
2022/03/11 10:06:48;;;;;;;34.25;17.30;;;8.30;98.70;;;;;;5066149;28;20083;-58
2022/03/11 10:09:19;;;;;;;34.13;18.75;;;8.40;97.50;;;;;;5043311;28;20045;-57
2022/03/11 10:11:53;;;;;;;30.27;16.88;;;8.60;96.90;;;;;;5037557;28;20103;-57
2022/03/11 10:14:28;;;;;;;27.55;16.45;;;8.60;94.60;;;;;;5045883;28;20037;-58
2022/03/11 10:16:54;;;;;;;36.47;18.40;;;8.60;95.90;;;;;;5044621;28;20055;-57
2022/03/11 10:19:21;;;;;;;32.55;17.25;;;8.60;97.40;;;;;;5023862;28;20047;-58
2022/03/11 10:21:48;;;;;;;34.80;18.05;;;8.70;96.10;;;;;;5057533;28;20094;-58
2022/03/11 10:24:18;;;;;;;35.88;18.50;;;8.80;95.60;;;;;;5059908;28;20036;-58
2022/03/11 10:26:49;;;;;;;35.53;18.15;;;8.90;95.00;;;;;;5042736;28;20044;-57
2022/03/11 10:29:17;;;;;;;32.58;17.38;;;9.00;94.90;;;;;;5053758;28;20546;-57
2022/03/11 10:31:47;;;;;;;34.47;19.20;;;9.10;94.30;;;;;;5043542;28;20197;-58
2022/03/11 10:34:22;;;;;;;36.00;19.10;;;9.00;95.90;;;;;;5041350;28;20354;-58
2022/03/11 10:37:09;;;;;;;31.73;18.17;;;9.20;95.40;;;;;;5054057;28;20411;-57
2022/03/11 10:39:36;;;;;;;31.75;18.55;;;9.20;92.10;;;;;;5053323;28;20041;-58
2022/03/11 10:42:27;;;;;;;32.25;18.30;;;9.20;94.60;;;;;;5048233;28;20068;-58
2022/03/11 10:44:56;;;;;;;32.40;18.20;;;9.20;94.30;;;;;;5041589;28;20045;-57
2022/03/11 10:47:28;;;;;;;33.17;18.70;;;9.40;95.60;;;;;;5048565;28;20051;-57
2022/03/11 10:49:56;;;;;;;30.13;17.70;;;9.40;94.80;;;;;;5048386;28;20056;-57
2022/03/11 10:52:32;;;;;;;32.78;18.83;;;9.50;93.50;;;;;;5054912;28;20040;-58
2022/03/11 10:55:00;;;;;;;30.85;18.50;;;9.50;92.70;;;;;;5043765;28;20453;-57
2022/03/11 10:57:38;;;;;;;29.52;17.50;;;9.50;93.80;;;;;;5044884;28;20123;-57
2022/03/11 11:00:19;;;;;;;32.72;18.75;;;9.60;93.30;;;;;;5041412;28;20767;-58
2022/03/11 11:02:46;;;;;;;31.45;17.95;;;9.60;92.40;;;;;;5047621;28;20090;-58
2022/03/11 11:05:13;;;;;;;34.58;19.38;;;9.70;92.00;;;;;;5052443;28;20037;-58
2022/03/11 11:07:41;;;;;;;30.00;17.85;;;9.70;93.40;;;;;;5046339;28;20124;-57
2022/03/11 11:10:11;;;;;;;32.75;19.38;;;9.80;93.80;;;;;;5049917;28;20079;-58
2022/03/11 11:12:37;;;;;;;30.45;17.95;;;9.80;92.20;;;;;;5048307;28;20123;-57
2022/03/11 11:15:04;;;;;;;33.30;17.05;;;9.90;94.10;;;;;;5042802;28;20554;-57
2022/03/11 11:17:31;;;;;;;28.60;16.40;;;10.00;92.50;;;;;;5044340;28;20167;-57
2022/03/11 11:20:00;;;;;;;29.30;16.75;;;10.00;91.70;;;;;;5044204;28;20090;-58
2022/03/11 11:22:26;;;;;;;42.83;19.45;;;10.10;92.10;;;;;;5037582;28;20073;-58
2022/03/11 11:24:55;;;;;;;30.73;18.17;;;10.20;94.10;;;;;;5033640;28;20048;-58
2022/03/11 11:27:21;;;;;;;32.13;17.75;;;10.30;93.70;;;;;;5047628;28;20052;-58
2022/03/11 11:29:50;;;;;;;32.08;19.27;;;10.40;92.90;;;;;;5063000;28;20115;-58
2022/03/11 11:32:19;;;;;;;32.85;18.65;;;10.50;92.80;;;;;;5045473;28;20036;-57
2022/03/11 11:34:45;;;;;;;29.55;18.60;;;10.50;90.90;;;;;;5047571;28;20699;-58
2022/03/11 11:37:37;;;;;;;34.35;18.38;;;10.60;92.50;;;;;;5036802;28;20033;-58
2022/03/11 11:40:36;;;;;;;29.42;17.90;;;10.60;87.30;;;;;;5019294;28;20034;-58
2022/03/11 11:43:13;;;;;;;32.42;17.40;;;10.80;92.40;;;;;;5029026;28;20075;-58
2022/03/11 11:46:03;;;;;;;33.97;17.77;;;10.90;87.70;;;;;;5060978;28;20044;-58
2022/03/11 11:48:31;;;;;;;30.40;17.65;;;10.90;86.80;;;;;;5058120;28;20048;-58
2022/03/11 11:50:58;;;;;;;33.25;19.05;;;10.90;85.00;;;;;;5041465;28;20033;-59
2022/03/11 11:53:49;;;;;;;33.28;18.20;;;10.80;78.20;;;;;;5049216;28;20056;-59
2022/03/11 11:56:35;;;;;;;29.67;17.38;;;10.90;81.60;;;;;;5031762;28;20060;-58
2022/03/11 11:59:29;;;;;;;31.73;17.60;;;10.90;79.00;;;;;;5040689;28;20048;-59
2022/03/11 12:01:56;;;;;;;32.10;18.80;;;11.00;81.80;;;;;;5056047;28;20082;-58
2022/03/11 12:04:33;;;;;;;30.60;17.15;;;11.10;84.00;;;;;;5064608;28;20055;-58
2022/03/11 12:07:03;;;;;;;32.45;18.23;;;11.20;82.70;;;;;;5040691;28;20047;-58
2022/03/11 12:10:01;;;;;;;28.35;17.67;;;11.30;81.50;;;;;;5047779;28;20056;-59
2022/03/11 12:12:33;;;;;;;30.20;16.73;;;11.40;76.80;;;;;;5026612;28;20045;-59
2022/03/11 12:15:01;;;;;;;30.17;16.55;;;11.40;82.80;;;;;;5044685;28;20048;-59
2022/03/11 12:17:43;;;;;;;29.02;16.77;;;11.60;83.50;;;;;;5025713;28;20072;-58
2022/03/11 12:20:46;;;;;;;28.05;16.80;;;11.60;76.80;;;;;;5044429;28;20670;-59
2022/03/11 12:23:14;;;;;;;29.77;17.33;;;11.70;74.30;;;;;;5028133;28;20048;-57
2022/03/11 12:25:49;;;;;;;31.75;18.13;;;11.80;82.40;;;;;;5034251;28;20041;-59
2022/03/11 12:28:25;;;;;;;31.15;17.33;;;11.90;80.00;;;;;;5044654;28;20175;-58
2022/03/11 12:30:50;;;;;;;29.88;17.05;;;11.90;78.70;;;;;;5049119;28;20408;-59
2022/03/11 12:33:18;;;;;;;29.80;17.80;;;12.00;78.30;;;;;;5061060;28;20041;-59
2022/03/11 12:35:46;;;;;;;31.13;17.23;;;12.10;76.30;;;;;;5065546;28;20052;-58